sensor_id;sensor_type;location;lat;lon;timestamp;P1;durP1;ratioP1;P2;durP2;ratioP2
42964;SDS011;28604;51.204;22.552;2023-08-06T00:00:32;9.38;;;5.78;;
42964;SDS011;28604;51.204;22.552;2023-08-06T00:03:18;6.43;;;5.65;;
42964;SDS011;28604;51.204;22.552;2023-08-06T00:05:44;9.63;;;5.70;;
42964;SDS011;28604;51.204;22.552;2023-08-06T00:08:10;10.27;;;5.85;;
42964;SDS011;28604;51.204;22.552;2023-08-06T00:10:36;12.15;;;6.22;;
42964;SDS011;28604;51.204;22.552;2023-08-06T00:13:02;15.93;;;6.07;;
42964;SDS011;28604;51.204;22.552;2023-08-06T00:15:27;8.15;;;6.10;;
42964;SDS011;28604;51.204;22.552;2023-08-06T00:17:53;6.78;;;5.65;;
42964;SDS011;28604;51.204;22.552;2023-08-06T00:20:19;11.70;;;5.32;;
42964;SDS011;28604;51.204;22.552;2023-08-06T00:22:46;10.10;;;6.22;;
42964;SDS011;28604;51.204;22.552;2023-08-06T00:25:12;11.32;;;6.13;;
42964;SDS011;28604;51.204;22.552;2023-08-06T00:27:38;14.40;;;6.70;;
42964;SDS011;28604;51.204;22.552;2023-08-06T00:30:04;6.43;;;5.82;;
42964;SDS011;28604;51.204;22.552;2023-08-06T00:32:31;7.38;;;6.68;;
42964;SDS011;28604;51.204;22.552;2023-08-06T00:34:59;8.02;;;6.28;;
42964;SDS011;28604;51.204;22.552;2023-08-06T00:37:25;7.20;;;6.20;;
42964;SDS011;28604;51.204;22.552;2023-08-06T00:39:51;11.02;;;6.38;;
42964;SDS011;28604;51.204;22.552;2023-08-06T00:42:17;17.60;;;5.70;;
42964;SDS011;28604;51.204;22.552;2023-08-06T00:44:46;8.93;;;6.20;;
42964;SDS011;28604;51.204;22.552;2023-08-06T00:47:12;12.60;;;6.68;;
42964;SDS011;28604;51.204;22.552;2023-08-06T00:49:38;7.00;;;6.28;;
42964;SDS011;28604;51.204;22.552;2023-08-06T00:52:05;10.80;;;6.15;;
42964;SDS011;28604;51.204;22.552;2023-08-06T00:54:35;10.15;;;7.00;;
42964;SDS011;28604;51.204;22.552;2023-08-06T00:57:02;11.65;;;5.35;;
42964;SDS011;28604;51.204;22.552;2023-08-06T00:59:30;7.03;;;6.35;;
42964;SDS011;28604;51.204;22.552;2023-08-06T01:01:57;8.77;;;6.10;;
42964;SDS011;28604;51.204;22.552;2023-08-06T01:04:23;7.75;;;5.85;;
42964;SDS011;28604;51.204;22.552;2023-08-06T01:07:04;7.18;;;5.07;;
42964;SDS011;28604;51.204;22.552;2023-08-06T01:09:49;11.20;;;6.45;;
42964;SDS011;28604;51.204;22.552;2023-08-06T01:12:29;6.38;;;5.55;;
42964;SDS011;28604;51.204;22.552;2023-08-06T01:15:07;6.25;;;5.75;;
42964;SDS011;28604;51.204;22.552;2023-08-06T01:17:47;9.43;;;6.38;;
42964;SDS011;28604;51.204;22.552;2023-08-06T01:20:14;10.13;;;6.20;;
42964;SDS011;28604;51.204;22.552;2023-08-06T01:22:40;13.43;;;6.07;;
42964;SDS011;28604;51.204;22.552;2023-08-06T01:25:06;12.18;;;6.05;;
42964;SDS011;28604;51.204;22.552;2023-08-06T01:27:34;13.30;;;6.00;;
42964;SDS011;28604;51.204;22.552;2023-08-06T01:30:12;16.30;;;6.30;;
42964;SDS011;28604;51.204;22.552;2023-08-06T01:32:43;6.32;;;5.68;;
42964;SDS011;28604;51.204;22.552;2023-08-06T01:35:12;8.68;;;6.35;;
42964;SDS011;28604;51.204;22.552;2023-08-06T01:37:40;9.55;;;6.20;;
42964;SDS011;28604;51.204;22.552;2023-08-06T01:40:09;10.68;;;5.60;;
42964;SDS011;28604;51.204;22.552;2023-08-06T01:42:37;9.30;;;6.38;;
42964;SDS011;28604;51.204;22.552;2023-08-06T01:45:04;6.15;;;5.45;;
42964;SDS011;28604;51.204;22.552;2023-08-06T01:47:34;14.88;;;6.30;;
42964;SDS011;28604;51.204;22.552;2023-08-06T01:50:00;12.23;;;6.25;;
42964;SDS011;28604;51.204;22.552;2023-08-06T01:52:27;9.20;;;5.93;;
42964;SDS011;28604;51.204;22.552;2023-08-06T01:54:53;7.93;;;5.72;;
42964;SDS011;28604;51.204;22.552;2023-08-06T01:57:19;10.25;;;6.30;;
42964;SDS011;28604;51.204;22.552;2023-08-06T01:59:45;12.18;;;6.25;;
42964;SDS011;28604;51.204;22.552;2023-08-06T02:02:11;13.93;;;6.65;;
42964;SDS011;28604;51.204;22.552;2023-08-06T02:04:37;8.40;;;6.35;;
42964;SDS011;28604;51.204;22.552;2023-08-06T02:07:04;8.88;;;6.20;;
42964;SDS011;28604;51.204;22.552;2023-08-06T02:09:30;15.02;;;6.40;;
42964;SDS011;28604;51.204;22.552;2023-08-06T02:11:57;11.80;;;6.85;;
42964;SDS011;28604;51.204;22.552;2023-08-06T02:14:22;14.18;;;7.00;;
42964;SDS011;28604;51.204;22.552;2023-08-06T02:16:49;13.70;;;6.15;;
42964;SDS011;28604;51.204;22.552;2023-08-06T02:19:15;11.60;;;6.38;;
42964;SDS011;28604;51.204;22.552;2023-08-06T02:21:41;15.05;;;6.13;;
42964;SDS011;28604;51.204;22.552;2023-08-06T02:24:07;11.13;;;5.53;;
42964;SDS011;28604;51.204;22.552;2023-08-06T02:26:33;8.40;;;6.35;;
42964;SDS011;28604;51.204;22.552;2023-08-06T02:28:59;8.10;;;6.20;;
42964;SDS011;28604;51.204;22.552;2023-08-06T02:31:25;12.23;;;6.22;;
42964;SDS011;28604;51.204;22.552;2023-08-06T02:33:51;10.20;;;6.10;;
42964;SDS011;28604;51.204;22.552;2023-08-06T02:36:19;8.90;;;5.63;;
42964;SDS011;28604;51.204;22.552;2023-08-06T02:38:45;12.93;;;6.18;;
42964;SDS011;28604;51.204;22.552;2023-08-06T02:41:11;22.98;;;7.07;;
42964;SDS011;28604;51.204;22.552;2023-08-06T02:43:36;13.15;;;5.60;;
42964;SDS011;28604;51.204;22.552;2023-08-06T02:46:02;8.63;;;5.75;;
42964;SDS011;28604;51.204;22.552;2023-08-06T02:48:28;12.23;;;6.80;;
42964;SDS011;28604;51.204;22.552;2023-08-06T02:50:58;8.02;;;6.25;;
42964;SDS011;28604;51.204;22.552;2023-08-06T02:53:25;13.55;;;6.30;;
42964;SDS011;28604;51.204;22.552;2023-08-06T02:55:52;10.88;;;5.95;;
42964;SDS011;28604;51.204;22.552;2023-08-06T02:58:23;11.48;;;6.03;;
42964;SDS011;28604;51.204;22.552;2023-08-06T03:01:07;13.35;;;6.30;;
42964;SDS011;28604;51.204;22.552;2023-08-06T03:03:42;11.63;;;6.43;;
42964;SDS011;28604;51.204;22.552;2023-08-06T03:06:09;11.85;;;7.28;;
42964;SDS011;28604;51.204;22.552;2023-08-06T03:08:42;8.65;;;6.68;;
42964;SDS011;28604;51.204;22.552;2023-08-06T03:11:08;10.25;;;6.70;;
42964;SDS011;28604;51.204;22.552;2023-08-06T03:13:35;8.75;;;6.18;;
42964;SDS011;28604;51.204;22.552;2023-08-06T03:16:01;17.95;;;6.65;;
42964;SDS011;28604;51.204;22.552;2023-08-06T03:18:29;11.48;;;6.75;;
42964;SDS011;28604;51.204;22.552;2023-08-06T03:20:58;13.50;;;7.65;;
42964;SDS011;28604;51.204;22.552;2023-08-06T03:23:28;10.70;;;6.90;;
42964;SDS011;28604;51.204;22.552;2023-08-06T03:25:54;22.08;;;7.25;;
42964;SDS011;28604;51.204;22.552;2023-08-06T03:28:22;8.80;;;6.95;;
42964;SDS011;28604;51.204;22.552;2023-08-06T03:30:58;15.48;;;6.78;;
42964;SDS011;28604;51.204;22.552;2023-08-06T03:33:31;13.30;;;6.63;;
42964;SDS011;28604;51.204;22.552;2023-08-06T03:35:59;8.18;;;6.80;;
42964;SDS011;28604;51.204;22.552;2023-08-06T03:38:24;9.10;;;6.63;;
42964;SDS011;28604;51.204;22.552;2023-08-06T03:40:54;8.38;;;6.22;;
42964;SDS011;28604;51.204;22.552;2023-08-06T03:43:20;11.35;;;5.75;;
42964;SDS011;28604;51.204;22.552;2023-08-06T03:45:47;9.75;;;6.18;;
42964;SDS011;28604;51.204;22.552;2023-08-06T03:48:13;14.35;;;5.90;;
42964;SDS011;28604;51.204;22.552;2023-08-06T03:50:39;8.35;;;6.32;;
42964;SDS011;28604;51.204;22.552;2023-08-06T03:53:11;9.10;;;6.15;;
42964;SDS011;28604;51.204;22.552;2023-08-06T03:55:37;7.10;;;6.25;;
42964;SDS011;28604;51.204;22.552;2023-08-06T03:58:03;12.38;;;6.00;;
42964;SDS011;28604;51.204;22.552;2023-08-06T04:00:29;9.48;;;6.47;;
42964;SDS011;28604;51.204;22.552;2023-08-06T04:02:56;8.68;;;5.90;;
42964;SDS011;28604;51.204;22.552;2023-08-06T04:05:22;7.40;;;5.78;;
42964;SDS011;28604;51.204;22.552;2023-08-06T04:07:48;11.82;;;5.78;;
42964;SDS011;28604;51.204;22.552;2023-08-06T04:10:14;9.48;;;6.38;;
42964;SDS011;28604;51.204;22.552;2023-08-06T04:12:40;9.45;;;6.07;;
42964;SDS011;28604;51.204;22.552;2023-08-06T04:15:06;6.75;;;5.65;;
42964;SDS011;28604;51.204;22.552;2023-08-06T04:17:32;10.77;;;5.80;;
42964;SDS011;28604;51.204;22.552;2023-08-06T04:19:59;14.25;;;6.32;;
42964;SDS011;28604;51.204;22.552;2023-08-06T04:22:25;12.90;;;6.80;;
42964;SDS011;28604;51.204;22.552;2023-08-06T04:24:51;9.70;;;5.70;;
42964;SDS011;28604;51.204;22.552;2023-08-06T04:27:18;10.95;;;5.70;;
42964;SDS011;28604;51.204;22.552;2023-08-06T04:29:46;12.35;;;5.32;;
42964;SDS011;28604;51.204;22.552;2023-08-06T04:32:12;11.10;;;5.10;;
42964;SDS011;28604;51.204;22.552;2023-08-06T04:34:43;19.48;;;5.80;;
42964;SDS011;28604;51.204;22.552;2023-08-06T04:37:09;7.95;;;4.70;;
42964;SDS011;28604;51.204;22.552;2023-08-06T04:39:35;7.68;;;5.40;;
42964;SDS011;28604;51.204;22.552;2023-08-06T04:42:02;10.18;;;4.80;;
42964;SDS011;28604;51.204;22.552;2023-08-06T04:44:29;9.82;;;5.18;;
42964;SDS011;28604;51.204;22.552;2023-08-06T04:46:55;7.80;;;5.25;;
42964;SDS011;28604;51.204;22.552;2023-08-06T04:49:21;14.60;;;5.00;;
42964;SDS011;28604;51.204;22.552;2023-08-06T04:51:47;8.00;;;4.95;;
42964;SDS011;28604;51.204;22.552;2023-08-06T04:54:13;14.63;;;4.70;;
42964;SDS011;28604;51.204;22.552;2023-08-06T04:56:39;12.68;;;4.53;;
42964;SDS011;28604;51.204;22.552;2023-08-06T04:59:05;5.55;;;5.05;;
42964;SDS011;28604;51.204;22.552;2023-08-06T05:01:31;9.43;;;4.70;;
42964;SDS011;28604;51.204;22.552;2023-08-06T05:03:57;10.20;;;5.60;;
42964;SDS011;28604;51.204;22.552;2023-08-06T05:06:23;6.82;;;5.22;;
42964;SDS011;28604;51.204;22.552;2023-08-06T05:08:49;16.00;;;5.20;;
42964;SDS011;28604;51.204;22.552;2023-08-06T05:11:15;5.00;;;4.70;;
42964;SDS011;28604;51.204;22.552;2023-08-06T05:13:41;9.00;;;5.13;;
42964;SDS011;28604;51.204;22.552;2023-08-06T05:16:07;8.82;;;5.93;;
42964;SDS011;28604;51.204;22.552;2023-08-06T05:18:33;6.20;;;4.80;;
42964;SDS011;28604;51.204;22.552;2023-08-06T05:20:59;11.00;;;5.15;;
42964;SDS011;28604;51.204;22.552;2023-08-06T05:23:26;10.77;;;5.35;;
42964;SDS011;28604;51.204;22.552;2023-08-06T05:25:51;6.88;;;4.93;;
42964;SDS011;28604;51.204;22.552;2023-08-06T05:28:17;10.52;;;5.05;;
42964;SDS011;28604;51.204;22.552;2023-08-06T05:30:43;11.35;;;5.35;;
42964;SDS011;28604;51.204;22.552;2023-08-06T05:33:09;15.20;;;4.63;;
42964;SDS011;28604;51.204;22.552;2023-08-06T05:35:35;9.20;;;4.80;;
42964;SDS011;28604;51.204;22.552;2023-08-06T05:38:01;6.95;;;4.57;;
42964;SDS011;28604;51.204;22.552;2023-08-06T05:40:27;12.20;;;4.93;;
42964;SDS011;28604;51.204;22.552;2023-08-06T05:42:53;14.82;;;5.22;;
42964;SDS011;28604;51.204;22.552;2023-08-06T05:45:20;6.68;;;5.07;;
42964;SDS011;28604;51.204;22.552;2023-08-06T05:47:47;10.25;;;4.70;;
42964;SDS011;28604;51.204;22.552;2023-08-06T05:50:13;5.07;;;4.30;;
42964;SDS011;28604;51.204;22.552;2023-08-06T05:52:40;6.68;;;4.28;;
42964;SDS011;28604;51.204;22.552;2023-08-06T05:55:06;7.78;;;5.00;;
42964;SDS011;28604;51.204;22.552;2023-08-06T05:57:32;11.55;;;4.75;;
42964;SDS011;28604;51.204;22.552;2023-08-06T05:59:58;5.55;;;4.85;;
42964;SDS011;28604;51.204;22.552;2023-08-06T06:02:24;5.45;;;4.78;;
42964;SDS011;28604;51.204;22.552;2023-08-06T06:04:50;7.18;;;5.10;;
42964;SDS011;28604;51.204;22.552;2023-08-06T06:07:16;9.57;;;4.22;;
42964;SDS011;28604;51.204;22.552;2023-08-06T06:09:41;4.40;;;4.00;;
42964;SDS011;28604;51.204;22.552;2023-08-06T06:12:07;6.97;;;4.47;;
42964;SDS011;28604;51.204;22.552;2023-08-06T06:14:33;7.28;;;4.60;;
42964;SDS011;28604;51.204;22.552;2023-08-06T06:16:59;9.23;;;4.43;;
42964;SDS011;28604;51.204;22.552;2023-08-06T06:19:26;4.80;;;4.25;;
42964;SDS011;28604;51.204;22.552;2023-08-06T06:21:52;10.35;;;4.55;;
42964;SDS011;28604;51.204;22.552;2023-08-06T06:24:18;5.95;;;4.55;;
42964;SDS011;28604;51.204;22.552;2023-08-06T06:26:44;8.57;;;4.10;;
42964;SDS011;28604;51.204;22.552;2023-08-06T06:29:10;7.28;;;4.05;;
42964;SDS011;28604;51.204;22.552;2023-08-06T06:31:36;5.13;;;3.83;;
42964;SDS011;28604;51.204;22.552;2023-08-06T06:39:40;9.65;;;4.13;;
42964;SDS011;28604;51.204;22.552;2023-08-06T06:42:06;10.40;;;4.07;;
42964;SDS011;28604;51.204;22.552;2023-08-06T06:44:37;10.93;;;3.75;;
42964;SDS011;28604;51.204;22.552;2023-08-06T06:47:03;9.82;;;3.28;;
42964;SDS011;28604;51.204;22.552;2023-08-06T06:49:29;3.95;;;3.60;;
42964;SDS011;28604;51.204;22.552;2023-08-06T06:51:55;3.95;;;3.47;;
42964;SDS011;28604;51.204;22.552;2023-08-06T06:54:21;5.15;;;3.50;;
42964;SDS011;28604;51.204;22.552;2023-08-06T06:56:50;9.13;;;4.15;;
42964;SDS011;28604;51.204;22.552;2023-08-06T06:59:16;9.68;;;3.60;;
42964;SDS011;28604;51.204;22.552;2023-08-06T07:01:42;11.45;;;3.53;;
42964;SDS011;28604;51.204;22.552;2023-08-06T07:04:07;8.82;;;3.42;;
42964;SDS011;28604;51.204;22.552;2023-08-06T07:06:34;3.30;;;3.08;;
42964;SDS011;28604;51.204;22.552;2023-08-06T07:08:59;5.10;;;3.13;;
42964;SDS011;28604;51.204;22.552;2023-08-06T07:11:25;5.60;;;3.20;;
42964;SDS011;28604;51.204;22.552;2023-08-06T07:13:56;4.63;;;3.22;;
42964;SDS011;28604;51.204;22.552;2023-08-06T07:16:24;3.92;;;3.67;;
42964;SDS011;28604;51.204;22.552;2023-08-06T07:18:51;3.72;;;3.40;;
42964;SDS011;28604;51.204;22.552;2023-08-06T07:21:18;6.57;;;3.92;;
42964;SDS011;28604;51.204;22.552;2023-08-06T07:23:44;3.83;;;3.53;;
42964;SDS011;28604;51.204;22.552;2023-08-06T07:26:10;7.90;;;3.70;;
42964;SDS011;28604;51.204;22.552;2023-08-06T07:28:36;7.38;;;4.07;;
42964;SDS011;28604;51.204;22.552;2023-08-06T07:31:03;4.05;;;3.60;;
42964;SDS011;28604;51.204;22.552;2023-08-06T07:33:29;4.68;;;3.85;;
42964;SDS011;28604;51.204;22.552;2023-08-06T07:35:55;6.47;;;3.65;;
42964;SDS011;28604;51.204;22.552;2023-08-06T07:38:21;4.60;;;3.17;;
42964;SDS011;28604;51.204;22.552;2023-08-06T07:40:47;6.60;;;3.35;;
42964;SDS011;28604;51.204;22.552;2023-08-06T07:43:13;4.90;;;3.22;;
42964;SDS011;28604;51.204;22.552;2023-08-06T07:45:39;7.78;;;3.10;;
42964;SDS011;28604;51.204;22.552;2023-08-06T07:48:05;3.50;;;2.78;;
42964;SDS011;28604;51.204;22.552;2023-08-06T07:50:31;8.23;;;3.38;;
42964;SDS011;28604;51.204;22.552;2023-08-06T07:52:57;3.25;;;2.95;;
42964;SDS011;28604;51.204;22.552;2023-08-06T07:55:23;4.28;;;3.63;;
42964;SDS011;28604;51.204;22.552;2023-08-06T07:57:49;5.03;;;3.28;;
42964;SDS011;28604;51.204;22.552;2023-08-06T08:00:15;7.47;;;2.80;;
42964;SDS011;28604;51.204;22.552;2023-08-06T08:02:41;6.07;;;2.83;;
42964;SDS011;28604;51.204;22.552;2023-08-06T08:05:07;3.63;;;3.28;;
42964;SDS011;28604;51.204;22.552;2023-08-06T08:07:33;7.65;;;2.85;;
42964;SDS011;28604;51.204;22.552;2023-08-06T08:09:59;5.82;;;3.28;;
42964;SDS011;28604;51.204;22.552;2023-08-06T08:12:25;6.50;;;3.33;;
42964;SDS011;28604;51.204;22.552;2023-08-06T08:14:51;5.95;;;2.90;;
42964;SDS011;28604;51.204;22.552;2023-08-06T08:17:17;7.68;;;3.15;;
42964;SDS011;28604;51.204;22.552;2023-08-06T08:19:43;9.50;;;3.30;;
42964;SDS011;28604;51.204;22.552;2023-08-06T08:22:09;6.82;;;3.42;;
42964;SDS011;28604;51.204;22.552;2023-08-06T08:24:35;4.60;;;2.88;;
42964;SDS011;28604;51.204;22.552;2023-08-06T08:27:01;5.15;;;3.35;;
42964;SDS011;28604;51.204;22.552;2023-08-06T08:29:27;4.45;;;2.92;;
42964;SDS011;28604;51.204;22.552;2023-08-06T08:31:53;5.45;;;3.42;;
42964;SDS011;28604;51.204;22.552;2023-08-06T08:34:19;7.45;;;3.30;;
42964;SDS011;28604;51.204;22.552;2023-08-06T08:36:45;7.65;;;3.38;;
42964;SDS011;28604;51.204;22.552;2023-08-06T08:39:15;5.47;;;2.97;;
42964;SDS011;28604;51.204;22.552;2023-08-06T08:41:41;5.93;;;2.75;;
42964;SDS011;28604;51.204;22.552;2023-08-06T08:44:08;8.60;;;3.10;;
42964;SDS011;28604;51.204;22.552;2023-08-06T08:46:36;9.45;;;3.17;;
42964;SDS011;28604;51.204;22.552;2023-08-06T08:49:04;6.57;;;3.33;;
42964;SDS011;28604;51.204;22.552;2023-08-06T08:51:30;8.43;;;2.95;;
42964;SDS011;28604;51.204;22.552;2023-08-06T08:53:56;8.77;;;2.88;;
42964;SDS011;28604;51.204;22.552;2023-08-06T08:56:23;5.97;;;2.78;;
42964;SDS011;28604;51.204;22.552;2023-08-06T08:58:49;6.32;;;2.80;;
42964;SDS011;28604;51.204;22.552;2023-08-06T09:01:16;8.43;;;3.45;;
42964;SDS011;28604;51.204;22.552;2023-08-06T09:03:43;7.93;;;3.15;;
42964;SDS011;28604;51.204;22.552;2023-08-06T09:06:09;7.50;;;3.20;;
42964;SDS011;28604;51.204;22.552;2023-08-06T09:08:39;15.50;;;3.30;;
42964;SDS011;28604;51.204;22.552;2023-08-06T09:11:12;6.90;;;2.60;;
42964;SDS011;28604;51.204;22.552;2023-08-06T09:13:38;10.98;;;3.00;;
42964;SDS011;28604;51.204;22.552;2023-08-06T09:16:04;14.50;;;3.72;;
42964;SDS011;28604;51.204;22.552;2023-08-06T09:18:31;5.10;;;2.83;;
42964;SDS011;28604;51.204;22.552;2023-08-06T09:20:57;12.73;;;3.03;;
42964;SDS011;28604;51.204;22.552;2023-08-06T09:23:27;3.03;;;2.80;;
42964;SDS011;28604;51.204;22.552;2023-08-06T09:25:55;8.40;;;3.25;;
42964;SDS011;28604;51.204;22.552;2023-08-06T09:28:22;6.13;;;2.55;;
42964;SDS011;28604;51.204;22.552;2023-08-06T09:30:50;13.07;;;3.00;;
42964;SDS011;28604;51.204;22.552;2023-08-06T09:33:18;3.28;;;2.53;;
42964;SDS011;28604;51.204;22.552;2023-08-06T09:35:45;2.38;;;2.28;;
42964;SDS011;28604;51.204;22.552;2023-08-06T09:38:12;3.38;;;2.63;;
42964;SDS011;28604;51.204;22.552;2023-08-06T09:40:40;3.80;;;3.22;;
42964;SDS011;28604;51.204;22.552;2023-08-06T09:43:06;4.80;;;2.80;;
42964;SDS011;28604;51.204;22.552;2023-08-06T09:45:33;10.00;;;2.70;;
42964;SDS011;28604;51.204;22.552;2023-08-06T09:48:04;4.93;;;3.03;;
42964;SDS011;28604;51.204;22.552;2023-08-06T09:50:32;4.90;;;2.90;;
42964;SDS011;28604;51.204;22.552;2023-08-06T09:53:02;3.67;;;2.88;;
42964;SDS011;28604;51.204;22.552;2023-08-06T09:55:33;5.82;;;3.28;;
42964;SDS011;28604;51.204;22.552;2023-08-06T09:57:59;5.43;;;2.40;;
42964;SDS011;28604;51.204;22.552;2023-08-06T10:00:26;4.32;;;2.78;;
42964;SDS011;28604;51.204;22.552;2023-08-06T10:02:54;8.40;;;2.55;;
42964;SDS011;28604;51.204;22.552;2023-08-06T10:05:24;6.30;;;2.63;;
42964;SDS011;28604;51.204;22.552;2023-08-06T10:07:52;8.23;;;2.42;;
42964;SDS011;28604;51.204;22.552;2023-08-06T10:10:18;7.25;;;3.42;;
42964;SDS011;28604;51.204;22.552;2023-08-06T10:12:51;2.25;;;2.15;;
42964;SDS011;28604;51.204;22.552;2023-08-06T10:15:23;4.63;;;2.30;;
42964;SDS011;28604;51.204;22.552;2023-08-06T10:17:52;3.33;;;2.15;;
42964;SDS011;28604;51.204;22.552;2023-08-06T10:20:22;8.45;;;2.65;;
42964;SDS011;28604;51.204;22.552;2023-08-06T10:23:01;2.60;;;2.50;;
42964;SDS011;28604;51.204;22.552;2023-08-06T10:25:35;3.83;;;2.35;;
42964;SDS011;28604;51.204;22.552;2023-08-06T10:28:12;3.28;;;2.15;;
42964;SDS011;28604;51.204;22.552;2023-08-06T10:30:46;3.10;;;2.25;;
42964;SDS011;28604;51.204;22.552;2023-08-06T10:33:13;6.45;;;2.10;;
42964;SDS011;28604;51.204;22.552;2023-08-06T10:35:42;3.33;;;2.30;;
42964;SDS011;28604;51.204;22.552;2023-08-06T10:43:26;4.50;;;2.92;;
42964;SDS011;28604;51.204;22.552;2023-08-06T10:45:58;5.85;;;2.78;;
42964;SDS011;28604;51.204;22.552;2023-08-06T10:48:33;4.78;;;2.75;;
42964;SDS011;28604;51.204;22.552;2023-08-06T10:51:01;3.17;;;2.38;;
42964;SDS011;28604;51.204;22.552;2023-08-06T10:53:28;9.10;;;2.38;;
42964;SDS011;28604;51.204;22.552;2023-08-06T10:55:54;5.50;;;3.35;;
42964;SDS011;28604;51.204;22.552;2023-08-06T10:58:20;10.73;;;2.40;;
42964;SDS011;28604;51.204;22.552;2023-08-06T11:00:46;2.35;;;2.15;;
42964;SDS011;28604;51.204;22.552;2023-08-06T11:03:12;7.43;;;2.72;;
42964;SDS011;28604;51.204;22.552;2023-08-06T11:05:39;6.97;;;2.90;;
42964;SDS011;28604;51.204;22.552;2023-08-06T11:08:05;5.25;;;2.35;;
42964;SDS011;28604;51.204;22.552;2023-08-06T11:10:34;5.80;;;2.28;;
42964;SDS011;28604;51.204;22.552;2023-08-06T11:13:01;7.82;;;2.78;;
42964;SDS011;28604;51.204;22.552;2023-08-06T11:15:27;6.68;;;3.22;;
42964;SDS011;28604;51.204;22.552;2023-08-06T11:17:55;11.35;;;2.70;;
42964;SDS011;28604;51.204;22.552;2023-08-06T11:20:21;9.85;;;2.63;;
42964;SDS011;28604;51.204;22.552;2023-08-06T11:22:48;3.00;;;2.80;;
42964;SDS011;28604;51.204;22.552;2023-08-06T11:25:13;3.03;;;2.67;;
42964;SDS011;28604;51.204;22.552;2023-08-06T11:27:39;11.05;;;3.25;;
42964;SDS011;28604;51.204;22.552;2023-08-06T11:30:05;5.53;;;2.90;;
42964;SDS011;28604;51.204;22.552;2023-08-06T11:32:32;3.42;;;3.08;;
42964;SDS011;28604;51.204;22.552;2023-08-06T11:35:08;2.95;;;2.75;;
42964;SDS011;28604;51.204;22.552;2023-08-06T11:37:37;11.60;;;3.53;;
42964;SDS011;28604;51.204;22.552;2023-08-06T11:40:07;4.72;;;3.15;;
42964;SDS011;28604;51.204;22.552;2023-08-06T11:42:36;8.63;;;3.27;;
42964;SDS011;28604;51.204;22.552;2023-08-06T11:45:02;7.00;;;3.45;;
42964;SDS011;28604;51.204;22.552;2023-08-06T11:47:30;6.68;;;3.67;;
42964;SDS011;28604;51.204;22.552;2023-08-06T11:49:56;8.52;;;3.65;;
42964;SDS011;28604;51.204;22.552;2023-08-06T11:52:23;4.50;;;3.08;;
42964;SDS011;28604;51.204;22.552;2023-08-06T11:55:05;7.70;;;3.67;;
42964;SDS011;28604;51.204;22.552;2023-08-06T11:57:34;3.90;;;3.20;;
42964;SDS011;28604;51.204;22.552;2023-08-06T12:00:01;5.85;;;3.88;;
42964;SDS011;28604;51.204;22.552;2023-08-06T12:02:41;5.03;;;3.40;;
42964;SDS011;28604;51.204;22.552;2023-08-06T12:05:10;5.03;;;3.42;;
42964;SDS011;28604;51.204;22.552;2023-08-06T12:07:38;9.30;;;3.53;;
42964;SDS011;28604;51.204;22.552;2023-08-06T12:10:05;3.50;;;3.15;;
42964;SDS011;28604;51.204;22.552;2023-08-06T12:12:32;8.40;;;3.75;;
42964;SDS011;28604;51.204;22.552;2023-08-06T12:14:57;5.35;;;3.47;;
42964;SDS011;28604;51.204;22.552;2023-08-06T12:17:24;4.95;;;3.13;;
42964;SDS011;28604;51.204;22.552;2023-08-06T12:19:50;11.13;;;3.30;;
42964;SDS011;28604;51.204;22.552;2023-08-06T12:22:16;5.50;;;3.55;;
42964;SDS011;28604;51.204;22.552;2023-08-06T12:24:43;4.07;;;3.67;;
42964;SDS011;28604;51.204;22.552;2023-08-06T12:27:10;7.88;;;3.33;;
42964;SDS011;28604;51.204;22.552;2023-08-06T12:29:37;4.82;;;3.17;;
42964;SDS011;28604;51.204;22.552;2023-08-06T12:32:06;6.57;;;3.67;;
42964;SDS011;28604;51.204;22.552;2023-08-06T12:34:31;3.47;;;3.17;;
42964;SDS011;28604;51.204;22.552;2023-08-06T12:36:58;8.60;;;3.33;;
42964;SDS011;28604;51.204;22.552;2023-08-06T12:39:23;4.90;;;2.83;;
42964;SDS011;28604;51.204;22.552;2023-08-06T12:41:49;7.70;;;3.28;;
42964;SDS011;28604;51.204;22.552;2023-08-06T12:44:15;3.10;;;2.88;;
42964;SDS011;28604;51.204;22.552;2023-08-06T12:46:41;5.72;;;3.20;;
42964;SDS011;28604;51.204;22.552;2023-08-06T12:49:07;3.28;;;2.97;;
42964;SDS011;28604;51.204;22.552;2023-08-06T12:51:33;6.38;;;2.80;;
42964;SDS011;28604;51.204;22.552;2023-08-06T12:53:59;2.10;;;2.00;;
42964;SDS011;28604;51.204;22.552;2023-08-06T12:56:26;1.92;;;1.92;;
42964;SDS011;28604;51.204;22.552;2023-08-06T12:58:51;2.60;;;1.90;;
42964;SDS011;28604;51.204;22.552;2023-08-06T13:01:17;2.70;;;2.20;;
42964;SDS011;28604;51.204;22.552;2023-08-06T13:03:43;2.83;;;1.98;;
42964;SDS011;28604;51.204;22.552;2023-08-06T13:06:09;5.68;;;2.75;;
42964;SDS011;28604;51.204;22.552;2023-08-06T13:08:36;2.08;;;1.98;;
42964;SDS011;28604;51.204;22.552;2023-08-06T13:11:02;2.17;;;1.98;;
42964;SDS011;28604;51.204;22.552;2023-08-06T13:13:28;3.40;;;1.85;;
42964;SDS011;28604;51.204;22.552;2023-08-06T13:15:54;2.22;;;2.13;;
42964;SDS011;28604;51.204;22.552;2023-08-06T13:18:19;1.98;;;1.90;;
42964;SDS011;28604;51.204;22.552;2023-08-06T13:20:45;2.90;;;2.35;;
42964;SDS011;28604;51.204;22.552;2023-08-06T13:23:13;2.50;;;2.40;;
42964;SDS011;28604;51.204;22.552;2023-08-06T13:25:42;2.40;;;2.10;;
42964;SDS011;28604;51.204;22.552;2023-08-06T13:28:07;2.22;;;2.13;;
42964;SDS011;28604;51.204;22.552;2023-08-06T13:30:35;6.28;;;2.60;;
42964;SDS011;28604;51.204;22.552;2023-08-06T13:33:07;2.95;;;2.75;;
42964;SDS011;28604;51.204;22.552;2023-08-06T13:35:33;3.03;;;2.20;;
42964;SDS011;28604;51.204;22.552;2023-08-06T13:37:59;11.27;;;3.28;;
42964;SDS011;28604;51.204;22.552;2023-08-06T13:40:28;6.75;;;2.38;;
42964;SDS011;28604;51.204;22.552;2023-08-06T13:42:55;2.90;;;2.70;;
42964;SDS011;28604;51.204;22.552;2023-08-06T13:45:21;5.22;;;2.70;;
42964;SDS011;28604;51.204;22.552;2023-08-06T13:47:47;2.53;;;2.20;;
42964;SDS011;28604;51.204;22.552;2023-08-06T13:50:13;2.33;;;2.22;;
42964;SDS011;28604;51.204;22.552;2023-08-06T13:52:39;2.45;;;2.25;;
42964;SDS011;28604;51.204;22.552;2023-08-06T13:55:06;4.53;;;2.45;;
42964;SDS011;28604;51.204;22.552;2023-08-06T13:57:32;2.90;;;2.80;;
42964;SDS011;28604;51.204;22.552;2023-08-06T14:00:00;2.85;;;2.55;;
42964;SDS011;28604;51.204;22.552;2023-08-06T14:02:26;3.17;;;2.90;;
42964;SDS011;28604;51.204;22.552;2023-08-06T14:04:52;2.67;;;2.53;;
42964;SDS011;28604;51.204;22.552;2023-08-06T14:07:19;4.30;;;2.78;;
42964;SDS011;28604;51.204;22.552;2023-08-06T14:09:45;3.90;;;2.95;;
42964;SDS011;28604;51.204;22.552;2023-08-06T14:12:12;3.55;;;3.25;;
42964;SDS011;28604;51.204;22.552;2023-08-06T14:14:39;2.97;;;2.80;;
42964;SDS011;28604;51.204;22.552;2023-08-06T14:17:05;2.65;;;2.55;;
42964;SDS011;28604;51.204;22.552;2023-08-06T14:19:31;2.70;;;2.60;;
42964;SDS011;28604;51.204;22.552;2023-08-06T14:21:57;2.83;;;2.72;;
42964;SDS011;28604;51.204;22.552;2023-08-06T14:24:23;2.72;;;2.45;;
42964;SDS011;28604;51.204;22.552;2023-08-06T14:26:49;2.88;;;2.67;;
42964;SDS011;28604;51.204;22.552;2023-08-06T14:29:15;2.80;;;2.70;;
42964;SDS011;28604;51.204;22.552;2023-08-06T14:31:41;3.20;;;2.67;;
42964;SDS011;28604;51.204;22.552;2023-08-06T14:34:08;4.13;;;2.60;;
42964;SDS011;28604;51.204;22.552;2023-08-06T14:36:34;2.60;;;2.50;;
42964;SDS011;28604;51.204;22.552;2023-08-06T14:39:00;2.78;;;2.50;;
42964;SDS011;28604;51.204;22.552;2023-08-06T14:41:26;7.72;;;2.88;;